Time;durP1;ratioP1;P1;durP2;ratioP2;P2;SDS_P1;SDS_P2;PMS_P1;PMS_P2;Temp;Humidity;BMP_temperature;BMP_pressure;BME280_temperature;BME280_humidity;BME280_pressure;Samples;Min_cycle;Max_cycle;Signal;HPM_P1;HPM_P2
2022/09/02 00:00:11;;;;;;;;;8.00;7.25;;;;;25.13;38.53;101110.06;2413166;28;46472;-91
2022/09/02 00:01:26;;;;;;;;;7.50;7.50;;;;;25.14;38.99;101117.13;2413666;28;45157;-91
2022/09/02 00:02:37;;;;;;;;;8.50;8.50;;;;;25.12;39.40;101114.56;2413182;28;46481;-91
2022/09/02 00:03:47;;;;;;;;;8.25;8.25;;;;;25.12;38.52;101108.34;2413621;28;45280;-91
2022/09/02 00:04:58;;;;;;;;;8.00;8.00;;;;;25.12;38.62;101105.66;2412706;28;48231;-90
2022/09/02 00:06:09;;;;;;;;;9.00;8.50;;;;;25.11;38.75;101102.13;2413056;28;44685;-90
2022/09/02 00:07:19;;;;;;;;;9.00;9.00;;;;;25.10;38.45;101108.50;2412675;28;48132;-90
2022/09/02 00:08:32;;;;;;;;;12.50;8.00;;;;;25.10;37.96;101105.81;2409901;28;45251;-89
2022/09/02 00:09:43;;;;;;;;;9.25;8.25;;;;;25.10;38.73;101097.72;2415905;28;48018;-90
2022/09/02 00:10:53;;;;;;;;;8.50;8.50;;;;;25.09;39.01;101101.41;2419938;28;45453;-90
2022/09/02 00:12:05;;;;;;;;;9.25;8.25;;;;;25.10;38.84;101099.56;2413057;28;45466;-90
2022/09/02 00:13:18;;;;;;;;;8.50;8.25;;;;;25.09;39.08;101098.72;2412855;28;45360;-89
2022/09/02 00:14:35;;;;;;;;;9.00;8.00;;;;;25.09;39.43;101092.50;2412458;28;48178;-90
2022/09/02 00:15:47;;;;;;;;;9.00;9.00;;;;;25.07;39.30;101095.31;2412958;28;45339;-90
2022/09/02 00:16:59;;;;;;;;;7.00;6.25;;;;;25.08;39.28;101098.84;2422067;28;48380;-90
2022/09/02 00:18:11;;;;;;;;;9.25;8.25;;;;;25.05;39.30;101092.78;2419754;28;45324;-89
2022/09/02 00:19:25;;;;;;;;;8.25;8.25;;;;;25.04;39.57;101088.38;2422232;28;47873;-89
2022/09/02 00:20:36;;;;;;;;;8.00;8.00;;;;;25.03;39.31;101089.38;2430570;28;45396;-88
2022/09/02 00:21:46;;;;;;;;;8.00;7.75;;;;;25.04;39.76;101095.59;2426841;28;46307;-88
2022/09/02 00:22:56;;;;;;;;;8.75;8.25;;;;;25.01;39.47;101091.34;2413560;28;45372;-88
2022/09/02 00:24:07;;;;;;;;;6.75;6.75;;;;;25.02;39.40;101092.19;2413344;28;45491;-92
2022/09/02 00:25:17;;;;;;;;;9.00;8.00;;;;;25.00;39.42;101086.09;2422210;28;45237;-91
2022/09/02 00:26:27;;;;;;;;;11.50;9.25;;;;;24.98;40.18;101086.22;2412042;28;46798;-89
2022/09/02 00:27:38;;;;;;;;;8.50;8.50;;;;;24.96;39.62;101077.44;2412972;28;44692;-93
2022/09/02 00:28:48;;;;;;;;;8.50;7.50;;;;;24.95;39.50;101081.09;2422098;28;47261;-84
2022/09/02 00:29:59;;;;;;;;;9.25;8.00;;;;;24.95;39.19;101081.09;2419299;28;45217;-84
2022/09/02 00:31:09;;;;;;;;;8.25;8.25;;;;;24.92;39.83;101070.63;2413354;28;45271;-84
2022/09/02 00:32:20;;;;;;;;;7.75;7.75;;;;;24.90;39.32;101078.84;2413340;28;45318;-84
2022/09/02 00:33:30;;;;;;;;;9.25;9.25;;;;;24.89;39.92;101077.13;2413444;28;46479;-84
2022/09/02 00:34:41;;;;;;;;;4.75;4.50;;;;;24.87;39.78;101084.47;2431453;28;45179;-87
2022/09/02 00:35:51;;;;;;;;;6.00;6.00;;;;;24.83;40.30;101078.53;2426620;28;46576;-87
2022/09/02 00:37:02;;;;;;;;;9.25;9.25;;;;;24.79;40.28;101070.88;2412573;28;45300;-89
2022/09/02 00:38:13;;;;;;;;;10.00;10.00;;;;;24.79;40.50;101077.09;2412964;28;45480;-86
2022/09/02 00:39:24;;;;;;;;;10.25;8.00;;;;;24.76;40.45;101072.00;2413261;28;45467;-85
2022/09/02 00:40:37;;;;;;;;;8.50;8.25;;;;;24.74;40.21;101068.63;2412582;28;46337;-85
2022/09/02 00:41:47;;;;;;;;;11.00;9.00;;;;;24.73;40.20;101070.44;2413224;28;45150;-85
2022/09/02 00:42:58;;;;;;;;;7.75;5.75;;;;;24.71;40.42;101069.75;2413290;28;45238;-85
2022/09/02 00:44:12;;;;;;;;;9.75;9.75;;;;;24.68;40.98;101075.38;2413461;28;45228;-85
2022/09/02 00:45:23;;;;;;;;;10.50;9.25;;;;;24.67;40.46;101072.84;2413337;28;46452;-85
2022/09/02 00:46:33;;;;;;;;;11.25;10.00;;;;;24.65;40.47;101075.63;2418252;28;44809;-85
2022/09/02 00:47:44;;;;;;;;;9.00;8.25;;;;;24.65;40.53;101075.63;2424938;28;47284;-84
2022/09/02 00:49:00;;;;;;;;;8.00;8.00;;;;;24.65;40.36;101069.41;2419673;28;45472;-85
2022/09/02 00:50:15;;;;;;;;;8.75;8.25;;;;;24.63;40.45;101072.25;2413118;28;46525;-83
2022/09/02 00:51:30;;;;;;;;;10.25;9.25;;;;;24.60;40.45;101068.00;2422159;28;45340;-89
2022/09/02 00:52:55;;;;;;;;;6.75;6.75;;;;;24.60;40.24;101061.75;2418966;28;45383;-87
2022/09/02 00:54:06;;;;;;;;;9.00;9.00;;;;;24.57;40.61;101062.88;2412548;28;45407;-86
2022/09/02 00:55:21;;;;;;;;;7.75;7.75;;;;;24.58;40.05;101063.75;2412246;28;46313;-86
2022/09/02 00:56:32;;;;;;;;;7.25;7.25;;;;;24.58;40.67;101063.75;2412349;28;45290;-85
2022/09/02 00:57:47;;;;;;;;;7.25;7.25;;;;;24.56;40.28;101065.72;2414869;28;47748;-85
2022/09/02 00:58:59;;;;;;;;;11.00;10.00;;;;;24.56;40.74;101065.72;2419145;28;44698;-85
2022/09/02 01:00:16;;;;;;;;;12.00;8.25;;;;;24.55;40.64;101062.16;2413191;28;46394;-86
2022/09/02 01:01:26;;;;;;;;;10.50;10.50;;;;;24.54;40.49;101063.16;2413405;28;44749;-85
2022/09/02 01:02:40;;;;;;;;;9.00;7.75;;;;;24.54;40.43;101062.31;2413126;28;45350;-86
2022/09/02 01:03:50;;;;;;;;;8.50;8.50;;;;;24.53;40.61;101071.34;2413456;28;45281;-86
2022/09/02 01:05:02;;;;;;;;;10.50;9.25;;;;;24.52;40.39;101061.59;2412521;28;45261;-85
2022/09/02 01:06:14;;;;;;;;;9.50;7.75;;;;;24.50;40.44;101061.72;2412398;28;45178;-87
2022/09/02 01:07:29;;;;;;;;;9.00;8.50;;;;;24.48;40.62;101059.19;2416390;28;45272;-87
2022/09/02 01:08:43;;;;;;;;;8.25;7.50;;;;;24.45;40.09;101056.75;2414452;28;45149;-87
2022/09/02 01:09:55;;;;;;;;;9.00;9.00;;;;;24.47;40.20;101059.31;2412968;28;45426;-87
2022/09/02 01:11:05;;;;;;;;;9.00;9.00;;;;;24.44;40.54;101060.44;2412921;28;45347;-86
2022/09/02 01:12:16;;;;;;;;;10.00;10.00;;;;;24.43;40.27;101056.03;2412020;28;47436;-88
2022/09/02 01:13:29;;;;;;;;;9.50;9.50;;;;;24.43;40.44;101049.81;2412644;28;44732;-89
2022/09/02 01:14:39;;;;;;;;;9.00;8.00;;;;;24.41;40.65;101052.66;2404988;28;46289;-88
2022/09/02 01:16:23;;;;;;;;;10.00;9.75;;;;;24.38;40.23;101056.44;2422679;28;45141;-87
2022/09/02 01:17:34;;;;;;;;;9.75;9.75;;;;;24.37;40.16;101056.59;2415665;28;47109;-87
2022/09/02 01:18:48;;;;;;;;;8.25;7.50;;;;;24.34;40.55;101051.50;2421142;28;45331;-86
2022/09/02 01:20:10;;;;;;;;;11.25;10.50;;;;;24.34;40.46;101052.34;2411905;28;48264;-87
2022/09/02 01:21:22;;;;;;;;;8.25;8.00;;;;;24.32;40.88;101059.69;2413112;28;45261;-87
2022/09/02 01:22:33;;;;;;;;;8.75;8.00;;;;;24.29;41.37;101059.94;2417203;28;48161;-87
2022/09/02 01:23:45;;;;;;;;;8.00;8.00;;;;;24.28;41.13;101059.09;2412488;28;45256;-87
2022/09/02 01:25:01;;;;;;;;;8.25;8.25;;;;;24.26;41.34;101060.22;2421636;28;47536;-87
2022/09/02 01:26:12;;;;;;;;;7.25;6.75;;;;;24.25;40.68;101061.16;2418550;28;45249;-87
2022/09/02 01:27:22;;;;;;;;;7.50;7.00;;;;;24.21;40.91;101054.34;2412829;28;45407;-85
2022/09/02 01:28:34;;;;;;;;;9.00;8.00;;;;;24.19;40.63;101056.31;2412329;28;45541;-85
2022/09/02 01:29:49;;;;;;;;;12.25;11.50;;;;;24.17;41.30;101059.16;2411980;28;46165;-85
2022/09/02 01:31:00;;;;;;;;;11.00;9.00;;;;;24.15;41.12;101053.06;2412650;28;45206;-85
2022/09/02 01:32:11;;;;;;;;;8.50;7.50;;;;;24.13;41.35;101058.56;2412777;28;45381;-85
2022/09/02 01:33:22;;;;;;;;;11.00;9.50;;;;;24.11;41.22;101055.16;2412988;28;45253;-85
2022/09/02 01:34:33;;;;;;;;;8.25;8.25;;;;;24.11;41.26;101056.97;2412827;28;46360;-85
2022/09/02 01:35:43;;;;;;;;;10.00;8.00;;;;;24.09;41.33;101054.44;2414630;28;45241;-84
2022/09/02 01:36:53;;;;;;;;;10.25;8.75;;;;;24.07;41.38;101050.19;2421826;28;46389;-85
2022/09/02 01:38:04;;;;;;;;;8.75;7.00;;;;;24.04;41.92;101054.84;2412849;28;45450;-84
2022/09/02 01:39:15;;;;;;;;;8.50;7.50;;;;;24.05;41.68;101058.38;2412744;28;45615;-84
2022/09/02 01:40:29;;;;;;;;;10.00;9.00;;;;;24.03;41.66;101049.59;2412509;28;45159;-84
2022/09/02 01:41:39;;;;;;;;;9.00;9.00;;;;;24.03;41.74;101061.19;2415657;28;45541;-85
2022/09/02 01:42:55;;;;;;;;;11.50;11.00;;;;;24.01;42.19;101057.78;2420467;28;45229;-84
2022/09/02 01:44:06;;;;;;;;;9.50;9.00;;;;;24.03;42.30;101052.25;2406736;28;46684;-85
2022/09/02 01:45:17;;;;;;;;;9.00;8.00;;;;;24.00;42.28;101045.31;2422475;28;45359;-84
2022/09/02 01:46:27;;;;;;;;;7.25;6.75;;;;;23.99;42.71;101049.00;2413975;28;45297;-85
2022/09/02 01:47:38;;;;;;;;;10.00;9.00;;;;;24.01;42.46;101051.56;2412129;28;45266;-85
2022/09/02 01:48:49;;;;;;;;;8.25;8.25;;;;;24.00;42.62;101044.50;2412027;28;45933;-85
2022/09/02 01:49:59;;;;;;;;;6.00;6.00;;;;;23.99;42.81;101042.78;2412125;28;45239;-85
2022/09/02 01:51:16;;;;;;;;;10.75;8.50;;;;;23.98;42.37;101049.97;2412278;28;46491;-85
2022/09/02 01:52:28;;;;;;;;;9.00;9.00;;;;;24.00;42.78;101044.50;2412913;28;45332;-85
2022/09/02 01:53:38;;;;;;;;;10.25;9.25;;;;;24.00;42.75;101039.13;2403232;28;45284;-87
2022/09/02 01:54:49;;;;;;;;;10.00;9.25;;;;;24.01;41.74;101052.41;2408508;28;45368;-89
2022/09/02 01:56:00;;;;;;;;;11.00;11.00;;;;;24.00;42.07;101045.31;2411845;28;45426;-83
2022/09/02 01:57:10;;;;;;;;;10.00;9.25;;;;;24.01;41.82;101046.19;2412594;28;44651;-85
2022/09/02 01:58:20;;;;;;;;;8.25;8.00;;;;;24.02;42.42;101042.53;2412760;28;46222;-85
2022/09/02 01:59:31;;;;;;;;;9.25;9.25;;;;;24.02;42.37;101045.22;2412649;28;45348;-84
2022/09/02 02:00:41;;;;;;;;;7.50;7.50;;;;;24.03;42.34;101047.75;2412646;28;46780;-86
2022/09/02 02:01:52;;;;;;;;;7.00;7.00;;;;;24.03;42.70;101045.06;2412851;28;45201;-85
2022/09/02 02:03:03;;;;;;;;;9.25;9.00;;;;;24.03;41.81;101042.38;2412490;28;46415;-85
2022/09/02 02:04:14;;;;;;;;;10.75;9.25;;;;;24.06;42.04;101054.69;2412665;28;45292;-85
2022/09/02 02:05:25;;;;;;;;;9.00;9.00;;;;;24.07;42.50;101067.16;2412569;28;45687;-85
2022/09/02 02:06:40;;;;;;;;;10.50;8.00;;;;;24.06;42.66;101092.28;2412791;28;45336;-85
2022/09/02 02:07:50;;;;;;;;;9.25;7.50;;;;;24.09;42.71;101112.66;2415160;28;45409;-85
2022/09/02 02:09:01;;;;;;;;;12.25;10.25;;;;;24.09;42.93;101091.16;2412747;28;44649;-84
2022/09/02 02:10:13;;;;;;;;;9.25;9.00;;;;;24.13;42.31;101071.13;2412370;28;45481;-85
2022/09/02 02:11:24;;;;;;;;;5.25;5.25;;;;;24.12;42.03;101064.91;2412778;28;45304;-85
2022/09/02 02:12:36;;;;;;;;;8.75;8.75;;;;;24.13;42.12;101082.72;2412361;28;46545;-84
2022/09/02 02:13:46;;;;;;;;;10.00;9.00;;;;;24.14;41.77;101105.06;2411827;28;45441;-85
2022/09/02 02:14:57;;;;;;;;;7.75;7.75;;;;;24.16;42.00;101106.63;2412065;28;45489;-84
2022/09/02 02:16:07;;;;;;;;;8.75;8.75;;;;;24.17;41.52;101089.50;2412626;28;45310;-88
2022/09/02 02:17:17;;;;;;;;;6.50;6.50;;;;;24.19;41.52;101053.63;2416649;28;45260;-86
2022/09/02 02:18:28;;;;;;;;;8.00;8.00;;;;;24.17;41.81;101043.88;2420203;28;44770;-86
2022/09/02 02:19:39;;;;;;;;;9.75;9.25;;;;;24.18;41.71;101047.41;2411667;28;47061;-87
2022/09/02 02:20:49;;;;;;;;;7.25;7.00;;;;;24.19;41.49;101059.00;2412065;28;45273;-85
2022/09/02 02:22:00;;;;;;;;;10.00;9.00;;;;;24.21;41.19;101078.50;2411721;28;47325;-85
2022/09/02 02:23:10;;;;;;;;;12.00;10.75;;;;;24.21;42.21;101100.00;2412024;28;45445;-85
2022/09/02 02:24:21;;;;;;;;;10.50;9.25;;;;;24.21;42.28;101100.84;2412374;28;46363;-85
2022/09/02 02:25:31;;;;;;;;;9.50;8.75;;;;;24.23;40.90;101088.16;2411613;28;45172;-86
2022/09/02 02:26:42;;;;;;;;;8.25;8.25;;;;;24.24;40.82;101065.69;2411903;28;45523;-86
2022/09/02 02:27:52;;;;;;;;;8.75;8.75;;;;;24.25;40.74;101064.72;2421133;28;44753;-85
2022/09/02 02:29:03;;;;;;;;;14.50;10.50;;;;;24.25;40.92;101079.94;2416159;28;45557;-86
2022/09/02 02:30:15;;;;;;;;;10.25;9.50;;;;;24.24;41.10;101097.91;2411656;28;44754;-85
2022/09/02 02:31:26;;;;;;;;;8.25;8.00;;;;;24.27;41.36;101088.78;2412062;28;45480;-86
2022/09/02 02:32:36;;;;;;;;;7.50;7.50;;;;;24.25;40.89;101075.47;2430917;28;45315;-86
2022/09/02 02:33:46;;;;;;;;;8.75;8.00;;;;;24.27;41.13;101080.72;2425584;28;45455;-85
2022/09/02 02:34:57;;;;;;;;;9.25;8.75;;;;;24.29;40.94;101078.75;2412419;28;45233;-87
2022/09/02 02:36:08;;;;;;;;;8.50;7.00;;;;;24.31;40.91;101078.59;2412387;28;46190;-86
2022/09/02 02:37:19;;;;;;;;;8.00;8.00;;;;;24.30;41.02;101075.06;2414350;28;45152;-87
2022/09/02 02:38:31;;;;;;;;;9.00;8.00;;;;;24.28;40.86;101074.34;2411687;28;48166;-89
2022/09/02 02:39:42;;;;;;;;;9.00;8.25;;;;;24.29;40.85;101073.38;2414517;28;45189;-91
2022/09/02 02:40:56;;;;;;;;;8.00;8.00;;;;;24.30;40.71;101071.56;2411141;28;47314;-91
2022/09/02 02:42:07;;;;;;;;;10.00;10.00;;;;;24.25;40.98;101064.72;2414477;28;44688;-88
2022/09/02 02:43:17;;;;;;;;;7.50;7.25;;;;;24.24;40.77;101068.38;2411491;28;47052;-89
2022/09/02 02:44:28;;;;;;;;;6.25;6.25;;;;;24.25;41.45;101071.88;2411836;28;45459;-89
2022/09/02 02:45:38;;;;;;;;;10.00;9.75;;;;;24.24;41.74;101072.88;2412251;28;46006;-89
2022/09/02 02:46:49;;;;;;;;;9.00;8.00;;;;;24.21;41.89;101065.09;2412321;28;45224;-89
2022/09/02 02:47:59;;;;;;;;;9.50;9.00;;;;;24.19;41.59;101059.00;2415007;28;45499;-89
2022/09/02 02:49:10;;;;;;;;;9.25;8.25;;;;;24.19;41.43;101064.38;2412332;28;45269;-89
2022/09/02 02:50:22;;;;;;;;;8.50;8.50;;;;;24.17;41.76;101065.34;2412392;28;45355;-90
2022/09/02 02:51:33;;;;;;;;;8.00;7.25;;;;;24.14;41.65;101062.94;2421224;28;44692;-91
2022/09/02 02:52:44;;;;;;;;;9.00;9.00;;;;;24.11;41.57;101051.63;2411342;28;48105;-90
2022/09/02 02:53:54;;;;;;;;;6.00;6.00;;;;;24.09;41.90;101050.91;2404843;28;45278;-86
2022/09/02 02:55:06;;;;;;;;;9.25;8.75;;;;;24.05;41.66;101051.16;2413816;28;47023;-85
2022/09/02 02:56:16;;;;;;;;;11.50;10.00;;;;;24.03;42.08;101049.59;2418586;28;44667;-87
2022/09/02 02:57:27;;;;;;;;;11.50;9.75;;;;;24.00;41.75;101047.19;2414151;28;47355;-86
2022/09/02 02:58:37;;;;;;;;;12.50;10.25;;;;;23.98;42.15;101055.34;2421444;28;45443;-86
2022/09/02 02:59:47;;;;;;;;;12.00;10.00;;;;;23.97;42.27;101061.72;2413449;28;45411;-89
2022/09/02 03:00:59;;;;;;;;;8.75;8.75;;;;;23.93;41.51;101060.25;2412248;28;45309;-89
2022/09/02 03:02:10;;;;;;;;;9.00;9.00;;;;;23.90;41.31;101060.53;2412215;28;46104;-89
2022/09/02 03:03:21;;;;;;;;;9.50;9.50;;;;;23.88;41.09;101060.66;2411621;28;45218;-90
2022/09/02 03:04:32;;;;;;;;;10.00;8.25;;;;;23.84;41.26;101056.53;2411718;28;46305;-90
2022/09/02 03:05:43;;;;;;;;;12.00;9.50;;;;;23.80;41.16;101049.75;2421069;28;45314;-90
2022/09/02 03:06:53;;;;;;;;;10.25;9.00;;;;;23.77;41.02;101058.91;2418500;28;46625;-89
2022/09/02 03:08:06;;;;;;;;;10.25;9.75;;;;;23.76;41.60;101059.88;2414967;28;45230;-92
2022/09/02 03:09:19;;;;;;;;;9.25;7.25;;;;;23.74;41.81;101053.78;2407709;28;48171;-88
2022/09/02 03:10:31;;;;;;;;;11.75;10.75;;;;;23.72;41.80;101055.75;2404756;28;45444;-88
2022/09/02 03:11:41;;;;;;;;;10.00;10.00;;;;;23.70;42.73;101055.91;2411361;28;45516;-89
2022/09/02 03:12:52;;;;;;;;;10.25;10.25;;;;;23.70;42.67;101055.03;2411379;28;45306;-88
2022/09/02 03:14:03;;;;;;;;;9.50;8.00;;;;;23.69;42.54;101062.22;2411604;28;45245;-87
2022/09/02 03:15:17;;;;;;;;;9.50;9.50;;;;;23.68;42.91;101055.16;2411439;28;45435;-86
2022/09/02 03:16:27;;;;;;;;;8.50;8.00;;;;;23.68;43.23;101048.97;2411724;28;45363;-86
2022/09/02 03:17:37;;;;;;;;;9.00;8.50;;;;;23.67;43.39;101044.56;2405917;28;44729;-86
2022/09/02 03:18:49;;;;;;;;;6.75;6.75;;;;;23.66;43.08;101048.22;2404640;28;45207;-86
2022/09/02 03:20:00;;;;;;;;;10.00;9.50;;;;;23.64;43.28;101039.44;2411309;28;45356;-86
2022/09/02 03:21:11;;;;;;;;;12.00;10.75;;;;;23.62;42.91;101036.91;2411389;28;45660;-86
2022/09/02 03:22:21;;;;;;;;;8.25;8.25;;;;;23.63;43.31;101040.44;2412217;28;45241;-88
2022/09/02 03:23:31;;;;;;;;;9.00;9.00;;;;;23.60;42.50;101038.88;2411220;28;47182;-88
2022/09/02 03:24:42;;;;;;;;;9.25;8.25;;;;;23.57;43.54;101031.94;2411829;28;44664;-86
2022/09/02 03:25:52;;;;;;;;;9.75;8.25;;;;;23.57;43.18;101041.81;2411887;28;45202;-86
2022/09/02 03:27:03;;;;;;;;;11.00;8.25;;;;;23.56;43.58;101040.09;2410747;28;45219;-90
2022/09/02 03:28:14;;;;;;;;;10.50;9.00;;;;;23.54;43.73;101042.91;2402858;28;46123;-89
2022/09/02 03:29:25;;;;;;;;;9.50;8.50;;;;;23.50;43.01;101033.44;2408656;28;45306;-88
2022/09/02 03:30:37;;;;;;;;;9.75;8.25;;;;;23.51;43.64;101045.00;2413892;28;47086;-86
2022/09/02 03:31:48;;;;;;;;;9.75;9.75;;;;;23.47;43.40;101039.00;2418509;28;45380;-90
2022/09/02 03:33:00;;;;;;;;;10.75;9.50;;;;;23.45;43.21;101041.84;2411187;28;47907;-89
2022/09/02 03:34:11;;;;;;;;;11.25;7.75;;;;;23.42;43.48;101047.44;2404808;28;44780;-90
2022/09/02 03:35:22;;;;;;;;;9.00;9.00;;;;;23.40;42.98;101043.19;2411405;28;46241;-89
2022/09/02 03:36:38;;;;;;;;;11.00;9.00;;;;;23.34;42.76;101039.19;2418914;28;44711;-83
2022/09/02 03:37:50;;;;;;;;;10.75;10.25;;;;;23.30;42.10;101033.22;2410560;28;46356;-83
2022/09/02 03:39:02;;;;;;;;;13.25;12.50;;;;;23.29;42.21;101036.03;2405315;28;45334;-91
2022/09/02 03:40:16;;;;;;;;;13.25;12.50;;;;;23.25;42.11;101030.06;2411826;28;46482;-92
2022/09/02 03:41:26;;;;;;;;;16.50;12.75;;;;;23.23;42.70;101024.84;2411876;28;45414;-88
2022/09/02 03:42:37;;;;;;;;;16.00;11.75;;;;;23.20;42.84;101027.78;2420090;28;48092;-88
2022/09/02 03:43:48;;;;;;;;;17.00;14.50;;;;;23.19;42.83;101026.06;2418360;28;45360;-89
2022/09/02 03:44:58;;;;;;;;;19.50;16.25;;;;;23.19;42.85;101020.69;2420718;28;46478;-89
2022/09/02 03:46:09;;;;;;;;;14.00;13.50;;;;;23.16;42.63;101024.50;2411383;28;45471;-82
2022/09/02 03:47:20;;;;;;;;;16.50;16.50;;;;;23.19;42.74;101027.91;2404443;28;47124;-81
2022/09/02 03:48:30;;;;;;;;;17.75;17.75;;;;;23.19;42.68;101028.75;2411789;28;45269;-87
2022/09/02 03:49:41;;;;;;;;;14.50;12.75;;;;;23.16;42.64;101021.81;2411833;28;45182;-87
2022/09/02 03:50:51;;;;;;;;;17.00;16.50;;;;;23.17;42.93;101019.97;2411297;28;45181;-93
2022/09/02 03:52:01;;;;;;;;;21.00;19.00;;;;;23.16;42.17;101018.31;2404137;28;47057;-89
2022/09/02 03:53:12;;;;;;;;;20.75;19.25;;;;;23.16;42.67;101015.63;2411633;28;44656;-88
2022/09/02 03:54:23;;;;;;;;;21.75;19.50;;;;;23.19;42.48;101019.88;2412637;28;45242;-94
2022/09/02 03:55:36;;;;;;;;;27.75;22.00;;;;;23.20;42.31;101013.53;2411500;28;44756;-96
2022/09/02 03:56:46;;;;;;;;;25.25;23.25;;;;;23.21;42.75;101016.06;2413314;28;45735;-95
2022/09/02 03:57:57;;;;;;;;;19.25;19.25;;;;;23.23;42.37;101015.94;2413715;28;44766;-96
2022/09/02 03:59:08;;;;;;;;;24.75;22.25;;;;;23.23;42.45;101010.59;2411944;28;46895;-96
2022/09/02 04:00:23;;;;;;;;;26.50;23.25;;;;;23.27;42.58;101020.06;2414424;28;44592;-96
2022/09/02 04:01:34;;;;;;;;;19.00;17.75;;;;;23.27;42.55;101017.38;2413236;28;47131;-95
2022/09/02 04:02:44;;;;;;;;;26.25;26.00;;;;;23.27;42.44;101012.03;2425369;28;45398;-96
2022/09/02 04:03:55;;;;;;;;;21.00;21.00;;;;;23.28;42.62;101019.09;2420192;28;48337;-96
2022/09/02 04:05:06;;;;;;;;;20.50;20.00;;;;;23.28;42.98;101013.75;2404300;28;45317;-96
2022/09/02 04:06:19;;;;;;;;;20.75;18.50;;;;;23.30;42.80;101022.50;2411391;28;45647;-91
2022/09/02 04:07:29;;;;;;;;;17.00;17.00;;;;;23.29;42.67;101010.06;2414807;28;44608;-90
2022/09/02 04:08:42;;;;;;;;;20.25;18.25;;;;;23.28;43.11;101013.75;2412512;28;47021;-91
2022/09/02 04:09:55;;;;;;;;;21.75;20.00;;;;;23.27;43.08;101015.56;2413552;28;44568;-90
2022/09/02 04:11:07;;;;;;;;;21.50;18.25;;;;;23.29;43.18;101019.94;2412283;28;47165;-91
2022/09/02 04:12:18;;;;;;;;;20.25;19.50;;;;;23.30;43.25;101021.66;2412774;28;44894;-92
2022/09/02 04:13:28;;;;;;;;;20.00;15.50;;;;;23.28;43.50;101024.47;2413523;28;45495;-91
2022/09/02 04:14:38;;;;;;;;;17.00;16.50;;;;;23.32;43.34;101025.06;2422483;28;45245;-92
2022/09/02 04:15:49;;;;;;;;;21.00;18.25;;;;;23.31;43.28;101029.56;2419640;28;46381;-89
2022/09/02 04:16:59;;;;;;;;;17.00;15.25;;;;;23.32;44.13;101033.94;2412971;28;45185;-86
2022/09/02 04:18:11;;;;;;;;;18.50;17.50;;;;;23.34;43.74;101029.31;2412818;28;45225;-85
2022/09/02 04:19:21;;;;;;;;;16.00;15.50;;;;;23.36;43.73;101034.56;2413561;28;45216;-87
2022/09/02 04:20:31;;;;;;;;;21.75;20.00;;;;;23.37;43.78;101031.75;2421787;28;48626;-87
2022/09/02 04:21:42;;;;;;;;;21.75;19.50;;;;;23.37;43.94;101021.00;2419698;28;44793;-88
2022/09/02 04:22:53;;;;;;;;;18.50;17.25;;;;;23.38;43.79;101025.38;2412993;28;46078;-85
2022/09/02 04:24:06;;;;;;;;;19.00;17.00;;;;;23.38;43.88;101020.00;2422244;28;44788;-85
2022/09/02 04:25:17;;;;;;;;;20.25;17.25;;;;;23.38;43.71;101017.34;2419242;28;46593;-84
2022/09/02 04:26:28;;;;;;;;;18.00;16.25;;;;;23.38;43.73;101020.00;2413272;28;45356;-83
2022/09/02 04:27:38;;;;;;;;;16.75;14.25;;;;;23.38;44.29;101014.66;2412397;28;48127;-84
2022/09/02 04:28:49;;;;;;;;;14.50;13.75;;;;;23.37;44.10;101015.66;2413825;28;45265;-84
2022/09/02 04:30:00;;;;;;;;;16.75;14.50;;;;;23.38;44.07;101017.34;2413381;28;46579;-84
2022/09/02 04:31:12;;;;;;;;;15.50;14.50;;;;;23.36;44.25;101011.25;2413527;28;45141;-84
2022/09/02 04:32:22;;;;;;;;;20.25;17.25;;;;;23.36;44.24;101016.63;2413334;28;46428;-84
2022/09/02 04:33:33;;;;;;;;;17.75;16.25;;;;;23.34;44.21;101017.72;2413659;28;45190;-85
2022/09/02 04:34:44;;;;;;;;;20.75;18.50;;;;;23.33;44.64;101022.25;2412398;28;46669;-85
2022/09/02 04:35:54;;;;;;;;;19.75;16.50;;;;;23.31;44.46;101013.47;2412482;28;45524;-85
2022/09/02 04:37:05;;;;;;;;;20.25;17.25;;;;;23.29;44.95;101012.75;2412726;28;45320;-85
2022/09/02 04:38:15;;;;;;;;;15.75;15.25;;;;;23.28;44.44;101013.75;2413295;28;45397;-85
2022/09/02 04:39:26;;;;;;;;;17.50;16.50;;;;;23.27;44.96;101012.03;2412386;28;48111;-83
2022/09/02 04:40:41;;;;;;;;;16.75;14.50;;;;;23.25;44.88;101004.13;2412687;28;45196;-82
2022/09/02 04:41:52;;;;;;;;;18.25;15.50;;;;;23.25;44.97;101011.31;2413067;28;45515;-83
2022/09/02 04:43:03;;;;;;;;;17.25;16.75;;;;;23.22;45.24;101003.50;2413315;28;45257;-84
2022/09/02 04:44:13;;;;;;;;;16.00;15.50;;;;;23.22;45.11;101014.25;2413045;28;46205;-84
2022/09/02 04:45:23;;;;;;;;;16.75;14.25;;;;;23.21;45.03;101013.38;2413589;28;44746;-82
2022/09/02 04:46:34;;;;;;;;;16.25;13.75;;;;;23.21;45.44;101021.44;2412230;28;46887;-82
2022/09/02 04:47:45;;;;;;;;;12.00;9.50;;;;;23.21;44.93;101017.91;2412785;28;45467;-82
2022/09/02 04:48:56;;;;;;;;;12.25;12.00;;;;;23.20;45.44;101014.38;2413188;28;46203;-82
2022/09/02 04:50:06;;;;;;;;;13.00;10.75;;;;;23.22;45.48;101031.19;2413214;28;45376;-82
2022/09/02 04:51:19;;;;;;;;;16.25;13.25;;;;;23.22;45.51;101025.81;2413183;28;45437;-82
2022/09/02 04:52:30;;;;;;;;;13.25;11.00;;;;;23.23;45.10;101032.91;2413359;28;45301;-82
2022/09/02 04:53:41;;;;;;;;;12.00;12.00;;;;;23.23;46.10;101029.34;2421054;28;46199;-90
2022/09/02 04:54:52;;;;;;;;;10.75;10.75;;;;;23.20;46.44;101018.88;2425525;28;45423;-87
2022/09/02 04:56:07;;;;;;;;;16.25;13.00;;;;;23.16;47.15;101015.63;2419063;28;45423;-86
2022/09/02 04:57:18;;;;;;;;;12.75;12.25;;;;;23.12;47.07;101017.69;2413140;28;45317;-87
2022/09/02 04:58:28;;;;;;;;;10.75;10.75;;;;;23.09;47.96;101014.44;2413106;28;46364;-83
2022/09/02 04:59:39;;;;;;;;;15.25;13.00;;;;;23.05;49.20;101016.50;2413092;28;45381;-83
2022/09/02 05:00:49;;;;;;;;;13.75;11.50;;;;;23.05;48.39;101019.16;2411821;28;47163;-86
2022/09/02 05:02:00;;;;;;;;;14.00;13.00;;;;;23.02;48.63;101020.28;2418812;28;45825;-85
2022/09/02 05:03:10;;;;;;;;;12.00;12.00;;;;;23.00;48.70;101013.34;2419513;28;48107;-85
2022/09/02 05:04:21;;;;;;;;;13.75;10.50;;;;;22.98;48.93;101018.84;2405609;28;45177;-84
2022/09/02 05:05:34;;;;;;;;;11.50;11.50;;;;;22.95;49.87;101015.53;2417011;28;45958;-89
2022/09/02 05:06:45;;;;;;;;;13.00;12.00;;;;;22.91;49.89;101005.09;2415149;28;45494;-89
2022/09/02 05:07:57;;;;;;;;;13.00;12.50;;;;;22.89;50.39;101004.34;2412755;28;45762;-90
2022/09/02 05:09:07;;;;;;;;;15.00;11.75;;;;;22.85;50.18;101000.22;2411933;28;45325;-88
2022/09/02 05:10:18;;;;;;;;;13.00;11.50;;;;;22.84;50.32;100993.16;2413278;28;45296;-87
2022/09/02 05:11:30;;;;;;;;;12.00;10.50;;;;;22.82;51.37;100998.63;2412755;28;45497;-88
2022/09/02 05:12:41;;;;;;;;;12.75;12.75;;;;;22.82;51.15;100997.78;2417598;28;48120;-87
2022/09/02 05:13:52;;;;;;;;;14.00;14.00;;;;;22.81;50.66;101004.13;2412721;28;45350;-86
2022/09/02 05:15:03;;;;;;;;;11.75;11.00;;;;;22.81;50.45;101012.19;2410396;28;45570;-86
2022/09/02 05:16:19;;;;;;;;;14.25;14.00;;;;;22.78;51.33;100999.88;2402894;28;45324;-89
2022/09/02 05:17:31;;;;;;;;;12.50;12.50;;;;;22.79;52.03;101014.13;2403606;28;47023;-86
2022/09/02 05:18:42;;;;;;;;;12.50;11.00;;;;;22.76;51.64;101001.84;2411080;28;44808;-88
2022/09/02 05:19:52;;;;;;;;;7.00;7.00;;;;;22.74;51.71;101009.16;2418118;28;46119;-86
2022/09/02 05:21:06;;;;;;;;;15.50;13.00;;;;;22.75;52.54;101012.66;2408932;28;45256;-86
2022/09/02 05:22:16;;;;;;;;;16.75;14.50;;;;;22.72;51.43;101013.75;2410086;28;46528;-85
2022/09/02 05:23:27;;;;;;;;;13.00;12.75;;;;;22.69;52.26;101014.03;2413000;28;45416;-89
2022/09/02 05:24:37;;;;;;;;;14.50;13.00;;;;;22.67;52.37;101019.44;2411715;28;48092;-90
2022/09/02 05:25:48;;;;;;;;;14.00;12.75;;;;;22.67;52.54;101021.28;2414847;28;44654;-91
2022/09/02 05:26:58;;;;;;;;;14.75;12.75;;;;;22.65;53.86;101025.91;2418418;28;46433;-90
2022/09/02 05:28:09;;;;;;;;;13.50;13.00;;;;;22.63;54.01;101020.69;2413290;28;45251;-92